Time;durP1;ratioP1;P1;durP2;ratioP2;P2;SDS_P1;SDS_P2;PMS_P1;PMS_P2;Temp;Humidity;BMP_temperature;BMP_pressure;BME280_temperature;BME280_humidity;BME280_pressure;Samples;Min_cycle;Max_cycle;Signal;HPM_P1;HPM_P2
2023/10/23 00:02:18;;;;;;;;;24.00;21.67;;;;;9.96;100.00;100971.28;5070040;28;45509;-78
2023/10/23 00:05:00;;;;;;;;;21.00;17.67;;;;;10.26;100.00;101007.03;5082146;28;46379;-77
2023/10/23 00:07:31;;;;;;;;;19.67;18.00;;;;;9.97;100.00;100956.28;5074551;27;45609;-78
2023/10/23 00:10:04;;;;;;;;;25.00;21.00;;;;;9.74;100.00;100922.91;5079220;28;45474;-77
2023/10/23 00:12:38;;;;;;;;;27.00;26.67;;;;;9.62;100.00;100913.69;5062238;28;45517;-77
2023/10/23 00:15:04;;;;;;;;;24.00;21.67;;;;;9.85;100.00;100968.22;5074785;28;45854;-77
2023/10/23 00:17:32;;;;;;;;;26.00;22.00;;;;;9.66;100.00;100939.06;5076305;28;45467;-77
2023/10/23 00:20:00;;;;;;;;;24.67;23.00;;;;;9.59;100.00;100903.25;5058535;28;45454;-77
2023/10/23 00:22:27;;;;;;;;;26.50;25.25;;;;;10.23;100.00;101015.09;5067731;28;45470;-80
2023/10/23 00:24:56;;;;;;;;;28.00;22.67;;;;;9.94;100.00;100957.28;5055925;28;47880;-77
2023/10/23 00:27:22;;;;;;;;;26.00;24.33;;;;;10.26;100.00;101025.53;5067560;28;45546;-79
2023/10/23 00:29:49;;;;;;;;;22.00;19.00;;;;;9.90;100.00;100961.84;5059514;28;45471;-79
2023/10/23 00:32:15;;;;;;;;;18.75;18.75;;;;;9.74;100.00;100950.19;5042368;28;45828;-79
2023/10/23 00:34:40;;;;;;;;;24.67;17.67;;;;;9.68;100.00;100934.59;5067710;28;46227;-78
2023/10/23 00:37:05;;;;;;;;;22.00;19.00;;;;;9.55;100.00;100911.41;5067708;28;45628;-77
2023/10/23 00:39:31;;;;;;;;;23.67;22.00;;;;;9.70;100.00;100929.25;5070761;28;45429;-78
2023/10/23 00:41:57;;;;;;;;;35.00;23.67;;;;;10.16;100.00;100994.25;5059130;28;45518;-79
2023/10/23 00:44:22;;;;;;;;;26.33;22.67;;;;;10.20;100.00;101007.28;5058942;28;45403;-78
2023/10/23 00:46:48;;;;;;;;;21.67;19.33;;;;;9.62;100.00;100918.97;5057408;28;45393;-79
2023/10/23 00:49:17;;;;;;;;;19.67;19.67;;;;;10.07;100.00;100984.03;5043696;28;45364;-78
2023/10/23 00:51:42;;;;;;;;;25.00;21.33;;;;;9.66;100.00;100930.28;5052615;28;45774;-78
2023/10/23 00:54:08;;;;;;;;;24.67;22.00;;;;;10.15;100.00;100993.38;5066329;28;47521;-78
2023/10/23 00:56:46;;;;;;;;;25.50;19.50;;;;;9.92;100.00;100959.09;5054411;28;45469;-78
2023/10/23 00:59:12;;;;;;;;;21.33;21.33;;;;;9.64;100.00;100906.59;5072834;28;45477;-79
2023/10/23 01:01:38;;;;;;;;;20.67;18.33;;;;;9.79;100.00;100945.56;5044666;28;45415;-79
2023/10/23 01:04:15;;;;;;;;;29.33;20.00;;;;;9.30;100.00;100850.81;5050923;28;45412;-78
2023/10/23 01:07:18;;;;;;;;;20.67;18.00;;;;;9.40;100.00;100878.56;5073727;28;45286;-78
2023/10/23 01:09:52;;;;;;;;;20.00;20.00;;;;;9.49;100.00;100890.53;5064393;28;45421;-78
2023/10/23 01:12:18;;;;;;;;;21.67;16.67;;;;;10.15;100.00;101019.81;5057033;28;45489;-77
2023/10/23 01:14:48;;;;;;;;;16.00;15.33;;;;;9.40;100.00;100897.88;5069069;28;46204;-78
2023/10/23 01:17:17;;;;;;;;;22.00;18.00;;;;;9.57;100.00;100922.75;5053044;28;45529;-77
2023/10/23 01:19:42;;;;;;;;;23.00;15.33;;;;;9.66;100.00;100915.28;5049478;28;45304;-77
2023/10/23 01:22:08;;;;;;;;;20.67;19.00;;;;;9.71;100.00;100926.53;5075944;28;45680;-76
2023/10/23 01:24:48;;;;;;;;;13.67;13.67;;;;;10.10;100.00;100989.19;5057515;28;46652;-78
2023/10/23 01:27:44;;;;;;;;;;;;;;;;;;;;;
2023/10/23 01:30:28;;;;;;;;;16.33;14.67;;;;;9.76;100.00;100919.28;5042898;28;68668;-79
2023/10/23 01:32:53;;;;;;;;;14.00;12.67;;;;;9.71;100.00;100913.34;5066346;28;45447;-78
2023/10/23 01:35:19;;;;;;;;;12.00;10.33;;;;;10.10;100.00;100970.69;5057745;28;46232;-78
2023/10/23 01:37:51;;;;;;;;;16.00;15.67;;;;;9.97;100.00;100953.66;5072082;28;45443;-78
2023/10/23 01:40:24;;;;;;;;;16.00;14.67;;;;;9.81;100.00;100919.97;5040678;28;45385;-78
2023/10/23 01:42:56;;;;;;;;;14.67;11.00;;;;;9.61;100.00;100908.50;5060296;28;45696;-79
2023/10/23 01:45:22;;;;;;;;;14.67;13.67;;;;;9.49;100.00;100854.41;5071057;27;45814;-79
2023/10/23 01:47:48;;;;;;;;;18.33;16.33;;;;;9.50;100.00;100882.53;5060971;28;45301;-79
2023/10/23 01:50:16;;;;;;;;;13.00;12.67;;;;;9.35;100.00;100862.94;5068369;28;45520;-79
2023/10/23 01:52:47;;;;;;;;;11.33;8.67;;;;;9.58;100.00;100912.13;5066859;28;45548;-79
2023/10/23 01:55:13;;;;;;;;;12.00;12.00;;;;;9.63;100.00;100894.31;5069846;28;47567;-77
2023/10/23 01:57:39;;;;;;;;;13.00;13.00;;;;;9.57;100.00;100880.50;5042937;28;45317;-78
2023/10/23 02:00:17;;;;;;;;;11.00;8.67;;;;;9.73;100.00;100911.47;5059085;28;45379;-78
2023/10/23 02:03:26;;;;;;;;;;;;;;;;;;;;;
2023/10/23 02:05:56;;;;;;;;;16.33;11.00;;;;;9.57;100.00;100872.56;5056112;28;75277;-77
2023/10/23 02:08:24;;;;;;;;;11.67;10.00;;;;;9.58;100.00;100880.44;5048819;28;45328;-77
2023/10/23 02:10:52;;;;;;;;;13.00;8.00;;;;;9.66;100.00;100909.16;5062691;28;45365;-78
2023/10/23 02:13:29;;;;;;;;;;;;;;;;;;;;;
2023/10/23 02:15:55;;;;;;;;;7.33;7.00;;;;;9.48;100.00;100867.69;5076498;28;74902;-77
2023/10/23 02:18:20;;;;;;;;;11.33;8.33;;;;;9.42;100.00;100863.53;5054524;28;45233;-77
2023/10/23 02:20:51;;;;;;;;;10.00;10.00;;;;;9.40;100.00;100857.44;5050224;28;45300;-76
2023/10/23 02:23:16;;;;;;;;;13.00;10.00;;;;;9.49;100.00;100887.91;5056747;28;45675;-76
2023/10/23 02:25:42;;;;;;;;;10.00;7.33;;;;;9.44;100.00;100893.34;5053766;28;46626;-76
2023/10/23 02:28:10;;;;;;;;;9.33;9.00;;;;;9.29;100.00;100875.50;5069428;28;45336;-76
2023/10/23 02:30:38;;;;;;;;;9.67;8.33;;;;;8.99;100.00;100818.69;5084547;28;45469;-76
2023/10/23 02:33:04;;;;;;;;;9.33;9.33;;;;;9.12;100.00;100830.47;5049268;28;45570;-76
2023/10/23 02:35:31;;;;;;;;;11.67;9.33;;;;;9.50;100.00;100884.31;5065537;28;45426;-76
2023/10/23 02:37:57;;;;;;;;;9.67;7.00;;;;;9.34;100.00;100866.47;5083300;28;45300;-76
2023/10/23 02:40:31;;;;;;;;;6.67;6.67;;;;;9.22;100.00;100855.56;5070433;28;45341;-77
2023/10/23 02:42:59;;;;;;;;;10.33;6.33;;;;;9.12;100.00;100831.34;5060553;28;45355;-77
2023/10/23 02:46:09;;;;;;;;;7.67;6.00;;;;;9.23;100.00;100844.06;5051948;28;48440;-78
2023/10/23 02:48:35;;;;;;;;;9.00;6.00;;;;;9.20;100.00;100825.72;5057770;28;45483;-76
2023/10/23 02:51:01;;;;;;;;;11.67;9.67;;;;;9.20;100.00;100838.91;5050648;28;45409;-77
2023/10/23 02:53:26;;;;;;;;;11.00;8.67;;;;;9.45;100.00;100887.16;5059266;28;45494;-77
2023/10/23 02:55:54;;;;;;;;;6.33;6.00;;;;;8.99;100.00;100816.94;5080063;28;46195;-77
2023/10/23 02:58:22;;;;;;;;;6.00;6.00;;;;;9.25;100.00;100882.69;5062154;28;45357;-75
2023/10/23 03:00:48;;;;;;;;;10.33;7.00;;;;;9.58;100.00;100927.13;5054665;28;45473;-79
2023/10/23 03:03:18;;;;;;;;;7.33;7.00;;;;;8.93;100.00;100796.06;5062355;28;45436;-77
2023/10/23 03:05:43;;;;;;;;;7.67;5.67;;;;;9.35;100.00;100868.19;5076607;28;46665;-78
2023/10/23 03:08:14;;;;;;;;;8.67;7.00;;;;;9.37;100.00;100870.75;5066938;28;45242;-79
2023/10/23 03:10:42;;;;;;;;;7.00;6.67;;;;;9.48;100.00;100900.22;5062384;28;45454;-80
2023/10/23 03:13:10;;;;;;;;;8.67;6.67;;;;;9.04;100.00;100814.94;5080087;28;45540;-79
2023/10/23 03:15:36;;;;;;;;;7.33;5.67;;;;;9.41;100.00;100872.34;5054790;28;47263;-79
2023/10/23 03:18:05;;;;;;;;;7.67;6.67;;;;;9.28;100.00;100857.94;5052778;28;45621;-78
2023/10/23 03:20:31;;;;;;;;;10.33;5.00;;;;;9.30;100.00;100858.72;5047144;28;45372;-78
2023/10/23 03:22:56;;;;;;;;;10.67;9.33;;;;;9.06;100.00;100817.53;5063540;28;45445;-78
2023/10/23 03:25:24;;;;;;;;;10.00;5.00;;;;;9.32;100.00;100878.03;5065170;28;46341;-78
2023/10/23 03:27:49;;;;;;;;;5.00;5.00;;;;;9.55;100.00;100912.25;5076353;28;45300;-79
2023/10/23 03:33:03;;;;;;;;;10.00;8.33;;;;;9.13;100.00;100843.59;5049706;28;45384;-78
2023/10/23 03:35:39;;;;;;;;;10.67;6.67;;;;;9.28;100.00;100845.63;5072767;28;46771;-79
2023/10/23 03:38:05;;;;;;;;;6.67;6.67;;;;;9.53;100.00;100900.88;5062039;28;45332;-79
2023/10/23 03:40:32;;;;;;;;;7.33;5.67;;;;;9.29;100.00;100852.59;5080239;28;45853;-79
2023/10/23 03:42:58;;;;;;;;;9.00;6.33;;;;;8.81;100.00;100780.72;5080093;28;45544;-78
2023/10/23 03:45:23;;;;;;;;;11.00;6.33;;;;;9.35;100.00;100848.88;5057116;28;45468;-79
2023/10/23 03:47:50;;;;;;;;;8.67;6.67;;;;;9.22;100.00;100840.59;5032209;28;45297;-79
2023/10/23 03:50:16;;;;;;;;;6.33;6.33;;;;;9.16;100.00;100818.88;5062370;28;45318;-78
2023/10/23 03:52:44;;;;;;;;;4.00;4.00;;;;;9.54;100.00;100873.56;5049320;28;45270;-78
2023/10/23 03:55:09;;;;;;;;;8.67;7.67;;;;;8.87;100.00;100772.56;5035188;28;45505;-78
2023/10/23 03:57:35;;;;;;;;;9.00;7.00;;;;;8.94;100.00;100783.72;5030866;28;45441;-78
2023/10/23 04:00:00;;;;;;;;;6.67;5.67;;;;;9.22;100.00;100822.13;5056169;28;45437;-79
2023/10/23 04:02:25;;;;;;;;;11.67;7.33;;;;;9.58;100.00;100869.88;5037922;28;45565;-78
2023/10/23 04:04:51;;;;;;;;;9.67;6.00;;;;;9.50;100.00;100850.84;5048451;28;45841;-78
2023/10/23 04:07:16;;;;;;;;;11.00;5.00;;;;;9.14;100.00;100783.75;5040115;28;45391;-78
2023/10/23 04:09:44;;;;;;;;;7.00;6.67;;;;;9.28;100.00;100794.63;5055079;28;45384;-78
2023/10/23 04:12:09;;;;;;;;;6.00;6.00;;;;;9.31;100.00;100787.44;5041339;28;45341;-78
2023/10/23 04:14:35;;;;;;;;;5.67;5.00;;;;;9.33;100.00;100795.25;5053928;28;46045;-76
2023/10/23 04:17:00;;;;;;;;;11.33;7.00;;;;;9.57;100.00;100830.34;5048361;28;45312;-78
2023/10/23 04:19:26;;;;;;;;;6.33;6.00;;;;;9.50;100.00;100818.31;5050713;28;45433;-78
2023/10/23 04:22:00;;;;;;;;;4.33;4.00;;;;;9.67;100.00;100853.66;5011391;28;45543;-77
2023/10/23 04:24:26;;;;;;;;;7.33;6.00;;;;;9.65;100.00;100855.47;5048728;28;46505;-78
2023/10/23 04:27:03;;;;;;;;;5.00;5.00;;;;;9.42;100.00;100781.69;5033986;28;45435;-77
2023/10/23 04:29:28;;;;;;;;;4.00;4.00;;;;;8.88;100.00;100708.34;5030891;28;45321;-78
2023/10/23 04:31:54;;;;;;;;;8.00;5.67;;;;;8.98;100.00;100709.69;5052488;28;45434;-78
2023/10/23 04:34:19;;;;;;;;;5.00;5.00;;;;;9.05;100.00;100736.66;5058772;28;46515;-79
2023/10/23 04:36:45;;;;;;;;;11.00;5.00;;;;;9.61;100.00;100824.00;5051809;28;45439;-78
2023/10/23 04:39:13;;;;;;;;;7.33;5.00;;;;;9.32;100.00;100785.66;5052354;28;45612;-77
2023/10/23 04:41:43;;;;;;;;;5.67;4.33;;;;;9.25;100.00;100755.16;5024738;28;45424;-77
2023/10/23 04:44:08;;;;;;;;;6.33;4.33;;;;;9.77;100.00;100828.56;5047208;28;46243;-77
2023/10/23 04:46:46;;;;;;;;;7.67;5.00;;;;;9.76;100.00;100834.75;5048419;28;45543;-77
2023/10/23 04:49:15;;;;;;;;;6.00;4.33;;;;;9.15;100.00;100720.38;5071992;28;45558;-77
2023/10/23 04:51:47;;;;;;;;;5.67;4.33;;;;;9.24;100.00;100734.97;5064026;28;45324;-77
2023/10/23 04:54:13;;;;;;;;;6.00;4.33;;;;;9.78;100.00;100832.06;5058562;28;47999;-76
2023/10/23 04:56:40;;;;;;;;;4.67;4.67;;;;;9.07;100.00;100721.63;5062192;28;45443;-77
2023/10/23 04:59:06;;;;;;;;;4.67;3.33;;;;;9.55;100.00;100780.25;5059697;28;45324;-78
2023/10/23 05:01:32;;;;;;;;;7.00;5.00;;;;;9.35;100.00;100762.63;5055123;28;45535;-76
2023/10/23 05:03:57;;;;;;;;;4.00;4.00;;;;;9.79;100.00;100810.00;5061706;28;47137;-77
2023/10/23 05:06:26;;;;;;;;;7.00;5.00;;;;;9.68;100.00;100796.41;5057419;28;45516;-77
2023/10/23 05:08:51;;;;;;;;;4.33;3.33;;;;;9.70;100.00;100805.13;5079114;28;45369;-78
2023/10/23 05:11:17;;;;;;;;;3.67;3.67;;;;;9.68;100.00;100775.28;5074253;28;45369;-77
2023/10/23 05:13:42;;;;;;;;;8.67;4.33;;;;;9.74;100.00;100788.22;5070770;28;45475;-78
2023/10/23 05:16:07;;;;;;;;;5.00;5.00;;;;;9.27;100.00;100733.06;5060163;28;45527;-77
2023/10/23 05:18:41;;;;;;;;;7.00;6.00;;;;;9.39;100.00;100724.59;5051150;28;45767;-77
2023/10/23 05:21:07;;;;;;;;;4.00;3.67;;;;;9.06;100.00;100675.09;5078430;28;45328;-78
2023/10/23 05:23:40;;;;;;;;;6.00;4.33;;;;;9.30;100.00;100703.03;5072058;28;45373;-77
2023/10/23 05:26:11;;;;;;;;;3.33;3.33;;;;;9.63;100.00;100753.50;5064029;28;45498;-78
2023/10/23 05:28:54;;;;;;;;;6.00;5.00;;;;;9.01;100.00;100658.56;5048809;28;45411;-77
2023/10/23 05:31:20;;;;;;;;;5.00;3.00;;;;;9.30;100.00;100693.34;5046471;28;45282;-77
2023/10/23 05:33:45;;;;;;;;;8.00;4.33;;;;;9.76;100.00;100775.78;5049382;28;46242;-77
2023/10/23 05:36:11;;;;;;;;;5.67;4.00;;;;;9.31;100.00;100688.91;5070053;28;45361;-76
2023/10/23 05:38:38;;;;;;;;;4.00;3.67;;;;;9.67;100.00;100742.75;5060548;28;45818;-77
2023/10/23 05:41:11;;;;;;;;;3.67;3.33;;;;;9.47;100.00;100704.94;5078263;28;45456;-77
2023/10/23 05:43:36;;;;;;;;;4.00;4.00;;;;;9.49;100.00;100724.22;5077585;28;45297;-77
2023/10/23 05:46:03;;;;;;;;;5.00;3.67;;;;;9.80;100.00;100750.97;5073049;27;45511;-76
2023/10/23 05:48:29;;;;;;;;;3.67;3.67;;;;;9.11;100.00;100658.13;5059276;28;45615;-76
2023/10/23 05:51:06;;;;;;;;;5.00;4.67;;;;;9.32;100.00;100683.59;5069914;28;45476;-78
2023/10/23 05:53:35;;;;;;;;;3.00;3.00;;;;;9.13;100.00;100626.41;5057071;28;47093;-78
2023/10/23 05:56:13;;;;;;;;;7.33;5.00;;;;;9.79;100.00;100730.75;5065660;28;45364;-77
2023/10/23 05:58:39;;;;;;;;;3.67;3.00;;;;;9.24;100.00;100653.16;5059074;28;45570;-77
2023/10/23 06:01:15;;;;;;;;;6.00;4.67;;;;;9.75;100.00;100710.72;5053744;28;45401;-78
2023/10/23 06:03:48;;;;;;;;;4.00;4.00;;;;;9.44;100.00;100661.06;5060922;28;45540;-77
2023/10/23 06:06:14;;;;;;;;;6.67;3.00;;;;;9.38;100.00;100651.63;5054772;28;45685;-77
2023/10/23 06:08:40;;;;;;;;;3.00;2.67;;;;;9.59;100.00;100685.91;5076720;28;45359;-78
2023/10/23 06:11:11;;;;;;;;;3.00;3.00;;;;;9.60;100.00;100690.25;5058478;28;45503;-78
2023/10/23 06:13:43;;;;;;;;;4.33;3.67;;;;;9.62;100.00;100670.78;5078698;28;45483;-78
2023/10/23 06:16:09;;;;;;;;;3.33;3.00;;;;;9.69;100.00;100674.84;5065715;28;45302;-78
2023/10/23 06:18:37;;;;;;;;;5.00;3.33;;;;;10.02;100.00;100746.41;5059807;28;45274;-77
2023/10/23 06:21:05;;;;;;;;;6.33;4.00;;;;;9.34;100.00;100613.09;5062256;28;45592;-77
2023/10/23 06:23:33;;;;;;;;;4.00;2.67;;;;;9.61;100.00;100647.97;5053633;28;46408;-77
2023/10/23 06:25:59;;;;;;;;;6.00;4.67;;;;;9.53;100.00;100628.09;5053826;28;45518;-76
2023/10/23 06:28:25;;;;;;;;;6.00;5.00;;;;;10.11;100.00;100724.84;5056903;28;45333;-76
2023/10/23 06:30:51;;;;;;;;;2.00;2.00;;;;;10.14;100.00;100732.69;5071023;28;45483;-78
2023/10/23 06:33:17;;;;;;;;;7.67;4.67;;;;;9.72;100.00;100644.81;5079367;28;45303;-77
2023/10/23 06:35:55;;;;;;;;;3.67;3.00;;;;;9.76;100.00;100672.78;5061153;28;45562;-77
2023/10/23 06:38:21;;;;;;;;;4.00;4.00;;;;;9.58;100.00;100629.63;5056148;28;46800;-76
2023/10/23 06:40:47;;;;;;;;;3.67;3.67;;;;;9.43;100.00;100596.84;5042510;28;45513;-77
2023/10/23 06:43:12;;;;;;;;;4.00;3.00;;;;;9.68;100.00;100633.56;5072574;28;46409;-78
2023/10/23 06:45:38;;;;;;;;;4.00;2.67;;;;;9.75;100.00;100655.25;5068898;27;45482;-77
2023/10/23 06:48:03;;;;;;;;;2.33;2.33;;;;;10.19;100.00;100703.41;5081390;28;45272;-77
2023/10/23 06:50:29;;;;;;;;;4.67;2.00;;;;;9.60;100.00;100619.84;5062361;28;45638;-77
2023/10/23 06:52:54;;;;;;;;;3.00;3.00;;;;;9.63;100.00;100597.69;5059827;28;48297;-77
2023/10/23 06:55:19;;;;;;;;;6.00;3.67;;;;;9.83;100.00;100647.81;5067258;28;45618;-77
2023/10/23 06:57:45;;;;;;;;;5.67;3.00;;;;;10.28;100.00;100693.25;5048163;28;45247;-77
2023/10/23 07:00:11;;;;;;;;;4.00;4.00;;;;;9.90;100.00;100631.63;5072540;28;45428;-76
2023/10/23 07:02:36;;;;;;;;;3.00;3.00;;;;;9.89;100.00;100623.75;5064693;28;45452;-77
2023/10/23 07:05:02;;;;;;;;;2.00;2.00;;;;;10.41;100.00;100734.03;5065813;28;45475;-77
2023/10/23 07:07:28;;;;;;;;;2.33;2.33;;;;;10.19;100.00;100661.97;5049411;28;45510;-76
2023/10/23 07:09:58;;;;;;;;;4.67;3.00;;;;;10.43;100.00;100699.59;5079529;28;45534;-76
2023/10/23 07:12:24;;;;;;;;;5.67;2.33;;;;;10.37;100.00;100686.69;5080660;28;46460;-76
2023/10/23 07:14:49;;;;;;;;;7.00;4.33;;;;;10.26;100.00;100662.53;5065070;28;45351;-76
2023/10/23 07:17:14;;;;;;;;;3.33;3.33;;;;;10.19;100.00;100656.69;5057928;28;45445;-76
2023/10/23 07:19:40;;;;;;;;;4.00;3.00;;;;;10.54;100.00;100691.13;5055025;27;45294;-76
2023/10/23 07:22:05;;;;;;;;;1.33;1.33;;;;;10.61;100.00;100697.84;5063787;28;57980;-76
2023/10/23 07:24:30;;;;;;;;;2.67;2.67;;;;;10.63;100.00;100690.69;5081061;28;45399;-78
2023/10/23 07:26:56;;;;;;;;;2.00;2.00;;;;;10.28;100.00;100631.59;5059385;28;45643;-76
2023/10/23 07:29:21;;;;;;;;;3.67;2.00;;;;;10.75;100.00;100698.03;5051091;28;45358;-77
2023/10/23 07:31:52;;;;;;;;;5.00;3.00;;;;;10.77;100.00;100696.13;5047931;28;45679;-76
2023/10/23 07:34:18;;;;;;;;;6.00;3.33;;;;;10.81;100.00;100709.16;5053293;28;45532;-76
2023/10/23 07:36:43;;;;;;;;;3.67;3.67;;;;;10.79;100.00;100675.78;5048346;28;45608;-75
2023/10/23 07:39:08;;;;;;;;;3.33;3.33;;;;;10.80;100.00;100661.59;5049379;28;45331;-77
2023/10/23 07:41:34;;;;;;;;;2.33;2.33;;;;;10.91;100.00;100683.94;5067163;28;45835;-75
2023/10/23 07:43:59;;;;;;;;;6.00;3.00;;;;;10.95;100.00;100676.72;5053053;28;45385;-76
2023/10/23 07:46:35;;;;;;;;;2.00;2.00;;;;;10.90;100.00;100649.63;5055630;28;45469;-78
2023/10/23 07:49:01;;;;;;;;;5.67;4.00;;;;;10.89;100.00;100640.84;5060324;28;45312;-77
2023/10/23 07:51:36;;;;;;;;;2.00;2.00;;;;;10.53;100.00;100597.75;5060236;28;45377;-79
2023/10/23 07:54:05;;;;;;;;;3.00;3.00;;;;;10.80;100.00;100611.34;5068389;28;45426;-86
2023/10/23 07:56:30;;;;;;;;;6.00;3.00;;;;;10.99;100.00;100644.72;5053403;28;45531;-79
2023/10/23 07:59:08;;;;;;;;;4.00;2.67;;;;;11.10;100.00;100648.59;5064774;28;45496;-77
2023/10/23 08:01:43;;;;;;;;;;;;;;;;;;;;;
2023/10/23 08:04:12;;;;;;;;;5.00;3.67;;;;;11.04;100.00;100618.03;5063788;28;73801;-76
2023/10/23 08:06:38;;;;;;;;;3.33;2.00;;;;;10.87;100.00;100587.13;5059957;28;45494;-76
2023/10/23 08:09:04;;;;;;;;;2.00;2.00;;;;;11.34;100.00;100644.69;5060187;28;45538;-77
2023/10/23 08:11:30;;;;;;;;;4.00;4.00;;;;;11.41;100.00;100646.94;5073503;27;45445;-76
2023/10/23 08:13:55;;;;;;;;;3.00;3.00;;;;;11.37;100.00;100632.13;5056055;28;45468;-76
2023/10/23 08:16:20;;;;;;;;;2.00;2.00;;;;;11.48;100.00;100643.00;5047045;28;45647;-75
2023/10/23 08:18:46;;;;;;;;;4.00;2.50;;;;;11.49;100.00;100622.66;5070090;28;45547;-74
2023/10/23 08:21:15;;;;;;;;;6.33;3.00;;;;;11.54;100.00;100627.72;5077046;28;46277;-75
2023/10/23 08:23:42;;;;;;;;;4.33;3.33;;;;;11.50;100.00;100625.25;5083869;28;45298;-78
2023/10/23 08:26:08;;;;;;;;;3.67;3.00;;;;;11.60;100.00;100630.91;5063802;28;45486;-77
2023/10/23 08:28:34;;;;;;;;;6.67;3.67;;;;;11.55;100.00;100617.03;5060867;28;45596;-76
2023/10/23 08:30:59;;;;;;;;;4.00;3.00;;;;;11.60;100.00;100620.31;5078917;28;45587;-75
2023/10/23 08:33:24;;;;;;;;;2.33;2.00;;;;;11.65;100.00;100618.25;5076357;28;45363;-77
2023/10/23 08:35:50;;;;;;;;;3.33;2.67;;;;;11.57;100.00;100604.59;5077472;28;45385;-77
2023/10/23 08:38:15;;;;;;;;;2.00;2.00;;;;;11.65;100.00;100610.31;5060412;28;45553;-77
2023/10/23 08:40:41;;;;;;;;;3.33;3.33;;;;;11.71;100.00;100606.53;5060035;28;48465;-77
2023/10/23 08:43:08;;;;;;;;;5.00;3.00;;;;;11.52;100.00;100575.69;5059662;28;48039;-78
2023/10/23 08:45:33;;;;;;;;;4.67;4.67;;;;;11.81;100.00;100613.84;5069549;27;45309;-77
2023/10/23 08:47:58;;;;;;;;;3.00;3.00;;;;;11.87;100.00;100608.25;5073830;28;45209;-77
2023/10/23 08:50:25;;;;;;;;;5.33;3.33;;;;;11.96;100.00;100612.16;5068129;28;45674;-76
2023/10/23 08:53:07;;;;;;;;;2.67;2.00;;;;;11.79;100.00;100591.91;5067339;27;45782;-76
2023/10/23 08:55:33;;;;;;;;;4.33;3.00;;;;;11.99;100.00;100594.28;5060485;27;45371;-76
2023/10/23 08:58:00;;;;;;;;;7.00;3.33;;;;;12.15;100.00;100614.63;5062723;28;45348;-75
2023/10/23 09:00:25;;;;;;;;;4.67;4.00;;;;;11.97;100.00;100575.00;5067954;28;45647;-77
2023/10/23 09:02:51;;;;;;;;;5.33;5.33;;;;;12.21;100.00;100595.72;5060403;28;45605;-77
2023/10/23 09:05:17;;;;;;;;;3.33;3.00;;;;;12.11;100.00;100575.97;5075860;28;45483;-76
2023/10/23 09:07:43;;;;;;;;;4.00;4.00;;;;;12.10;100.00;100559.22;5057870;28;45744;-75
2023/10/23 09:10:08;;;;;;;;;6.00;4.00;;;;;12.19;100.00;100561.34;5063399;28;46714;-76
2023/10/23 09:12:39;;;;;;;;;5.67;4.33;;;;;12.18;100.00;100556.13;5059676;28;46053;-76
2023/10/23 09:15:14;;;;;;;;;4.33;3.33;;;;;12.33;100.00;100569.38;5070928;28;45386;-76
2023/10/23 09:18:02;;;;;;;;;3.00;3.00;;;;;12.32;100.00;100556.19;5057365;28;45277;-76
2023/10/23 09:20:27;;;;;;;;;4.00;3.33;;;;;11.89;100.00;100495.06;5068981;27;45729;-76
2023/10/23 09:22:56;;;;;;;;;6.33;3.67;;;;;12.41;100.00;100563.59;5060670;28;45297;-76
2023/10/23 09:25:24;;;;;;;;;4.33;2.67;;;;;12.24;100.00;100539.84;5054819;28;45387;-76
2023/10/23 09:27:50;;;;;;;;;4.00;4.00;;;;;12.23;100.00;100536.38;5056676;28;46281;-76
2023/10/23 09:30:21;;;;;;;;;5.00;4.00;;;;;12.18;100.00;100489.84;5074132;28;46272;-76
2023/10/23 09:32:55;;;;;;;;;5.00;3.67;;;;;12.50;100.00;100539.19;5055946;28;45537;-76
2023/10/23 09:35:43;;;;;;;;;6.67;3.00;;;;;12.60;100.00;100555.44;5073911;27;45419;-79
2023/10/23 09:38:18;;;;;;;;;3.00;3.00;;;;;12.55;100.00;100553.03;5058237;28;45547;-80
2023/10/23 09:40:45;;;;;;;;;6.00;3.00;;;;;12.17;100.00;100474.91;5064100;28;45491;-80
2023/10/23 09:43:22;;;;;;;;;;;;;;;;;;;;;
2023/10/23 09:46:41;;;;;;;;;;;;;;;;;;;;;
2023/10/23 09:49:16;;;;;;;;;3.00;3.00;;;;;12.65;100.00;100550.69;5071259;28;73902;-81
2023/10/23 09:51:52;;;;;;;;;4.00;4.00;;;;;12.65;100.00;100551.56;5053259;28;46170;-81
2023/10/23 09:54:19;;;;;;;;;6.67;4.67;;;;;12.61;100.00;100531.44;5055498;28;45605;-82
2023/10/23 09:56:53;;;;;;;;;4.67;4.67;;;;;12.07;100.00;100433.97;5042232;28;45301;-82
2023/10/23 09:59:42;;;;;;;;;9.00;7.00;;;;;11.97;100.00;100410.66;5054692;28;45385;-82
2023/10/23 10:02:13;;;;;;;;;9.67;3.33;;;;;12.05;100.00;100426.09;5049333;28;47085;-81
2023/10/23 10:04:55;;;;;;;;;4.00;3.00;;;;;12.52;100.00;100503.69;5074383;28;45563;-81
2023/10/23 10:07:31;;;;;;;;;3.00;3.00;;;;;12.43;100.00;100464.44;5068724;28;45357;-81
2023/10/23 10:09:57;;;;;;;;;5.00;5.00;;;;;12.50;100.00;100464.91;5064549;28;45484;-79
2023/10/23 10:12:24;;;;;;;;;2.00;2.00;;;;;12.51;100.00;100456.88;5061879;28;47439;-79
2023/10/23 10:14:51;;;;;;;;;5.00;5.00;;;;;12.48;100.00;100442.94;5072152;28;45291;-78
2023/10/23 10:17:19;;;;;;;;;4.00;4.00;;;;;12.64;100.00;100448.16;5052735;28;45310;-78
2023/10/23 10:19:48;;;;;;;;;2.67;2.00;;;;;12.80;100.00;100478.13;5073829;27;45585;-79
2023/10/23 10:22:22;;;;;;;;;4.67;4.67;;;;;12.97;100.00;100489.41;5059171;28;47045;-77
2023/10/23 10:24:49;;;;;;;;;2.00;2.00;;;;;13.01;100.00;100482.09;5069742;28;45527;-82
2023/10/23 10:27:15;;;;;;;;;3.00;2.00;;;;;12.96;100.00;100473.56;5077662;28;45267;-81
2023/10/23 10:29:41;;;;;;;;;3.00;3.00;;;;;13.02;100.00;100478.50;5074473;28;45331;-83
2023/10/23 10:32:10;;;;;;;;;2.00;2.00;;;;;13.07;100.00;100482.56;5073055;28;45626;-82
2023/10/23 10:34:38;;;;;;;;;3.00;3.00;;;;;13.06;100.00;100475.56;5072256;28;44820;-85
2023/10/23 10:37:06;;;;;;;;;3.33;3.00;;;;;13.07;100.00;100471.97;5073395;28;45371;-82
2023/10/23 10:39:50;;;;;;;;;4.67;3.00;;;;;13.09;100.00;100468.41;5055581;28;45294;-84
2023/10/23 10:42:23;;;;;;;;;3.00;2.00;;;;;13.03;100.00;100467.78;5077901;28;45675;-82
2023/10/23 10:45:02;;;;;;;;;4.00;4.00;;;;;12.66;100.00;100410.00;5054292;28;44776;-84
2023/10/23 10:47:49;;;;;;;;;3.00;3.00;;;;;12.49;100.00;100381.84;5083390;28;45407;-78
2023/10/23 10:50:49;;;;;;;;;4.67;4.00;;;;;12.57;100.00;100391.97;5094164;28;45376;-80
2023/10/23 10:53:26;;;;;;;;;6.33;4.33;;;;;12.68;100.00;100402.78;5062048;28;45431;-78
2023/10/23 10:56:04;;;;;;;;;;;;;;;;;;;;;
2023/10/23 10:58:38;;;;;;;;;4.00;2.67;;;;;12.45;100.00;100363.56;5081135;28;69894;-79
2023/10/23 11:01:07;;;;;;;;;4.33;3.33;;;;;12.49;100.00;100371.25;5061870;28;45566;-77
2023/10/23 11:03:51;;;;;;;;;4.00;3.33;;;;;12.91;100.00;100447.31;5081614;28;46920;-82
2023/10/23 11:06:32;;;;;;;;;3.00;3.00;;;;;12.43;100.00;100373.44;5083613;28;45466;-80
2023/10/23 11:08:58;;;;;;;;;4.67;4.00;;;;;12.41;100.00;100352.28;5071974;28;45288;-82
2023/10/23 11:11:28;;;;;;;;;5.00;4.00;;;;;12.80;100.00;100411.75;5077564;28;45775;-81
2023/10/23 11:14:17;;;;;;;;;4.67;3.00;;;;;12.46;100.00;100347.56;5059766;28;45661;-82
2023/10/23 11:16:51;;;;;;;;;4.33;3.00;;;;;12.35;100.00;100338.56;5057160;28;45388;-81
2023/10/23 11:19:24;;;;;;;;;4.33;4.33;;;;;12.76;100.00;100424.38;5055598;28;45540;-82
2023/10/23 11:22:09;;;;;;;;;4.67;4.67;;;;;12.85;100.00;100421.16;5058857;28;45676;-82
2023/10/23 11:24:43;;;;;;;;;4.00;4.00;;;;;12.49;100.00;100375.69;5054187;28;47405;-81
2023/10/23 11:27:48;;;;;;;;;4.33;4.00;;;;;12.38;100.00;100348.97;5057677;28;45369;-81
2023/10/23 11:30:27;;;;;;;;;9.67;5.00;;;;;12.25;100.00;100354.19;5047434;28;45724;-80
2023/10/23 11:35:47;;;;;;;;;5.00;4.00;;;;;12.21;100.00;100336.75;5048381;28;46206;-80
2023/10/23 11:42:03;;;;;;;;;7.00;5.00;;;;;12.11;100.00;100329.44;5065940;28;45496;-80
2023/10/23 11:44:32;;;;;;;;;9.67;6.33;;;;;12.47;100.00;100383.72;5058816;28;45317;-79
2023/10/23 11:46:58;;;;;;;;;4.33;4.00;;;;;12.63;100.00;100394.25;5047234;28;46583;-79
2023/10/23 11:49:24;;;;;;;;;4.67;4.00;;;;;12.70;100.00;100403.53;5078821;28;45379;-79